sensor_id;sensor_type;location;lat;lon;timestamp;temperature;humidity
7654;DHT22;3869;48.406;10.774;2022-10-18T00:00:58;12.60;99.90
7654;DHT22;3869;48.406;10.774;2022-10-18T00:03:26;12.70;99.90
7654;DHT22;3869;48.406;10.774;2022-10-18T00:05:54;12.70;99.90
7654;DHT22;3869;48.406;10.774;2022-10-18T00:08:22;12.70;99.90
7654;DHT22;3869;48.406;10.774;2022-10-18T00:10:50;12.50;99.90
7654;DHT22;3869;48.406;10.774;2022-10-18T00:13:19;12.40;99.90
7654;DHT22;3869;48.406;10.774;2022-10-18T00:15:49;12.40;99.90
7654;DHT22;3869;48.406;10.774;2022-10-18T00:18:18;12.40;99.90
7654;DHT22;3869;48.406;10.774;2022-10-18T00:20:56;12.40;99.90
7654;DHT22;3869;48.406;10.774;2022-10-18T00:23:25;12.40;99.90
7654;DHT22;3869;48.406;10.774;2022-10-18T00:26:01;12.40;99.90
7654;DHT22;3869;48.406;10.774;2022-10-18T00:28:30;12.30;99.90
7654;DHT22;3869;48.406;10.774;2022-10-18T00:31:09;12.30;99.90
7654;DHT22;3869;48.406;10.774;2022-10-18T00:33:39;12.30;99.90
7654;DHT22;3869;48.406;10.774;2022-10-18T00:36:07;12.30;99.90
7654;DHT22;3869;48.406;10.774;2022-10-18T00:38:36;12.20;99.90
7654;DHT22;3869;48.406;10.774;2022-10-18T00:41:06;12.20;99.90
7654;DHT22;3869;48.406;10.774;2022-10-18T00:43:51;12.20;99.90
7654;DHT22;3869;48.406;10.774;2022-10-18T00:46:19;12.30;99.90
7654;DHT22;3869;48.406;10.774;2022-10-18T00:48:48;12.20;99.90
7654;DHT22;3869;48.406;10.774;2022-10-18T00:51:19;12.10;99.90
7654;DHT22;3869;48.406;10.774;2022-10-18T00:53:47;12.10;99.90
7654;DHT22;3869;48.406;10.774;2022-10-18T00:56:16;12.00;99.90
7654;DHT22;3869;48.406;10.774;2022-10-18T00:58:45;11.90;99.90
7654;DHT22;3869;48.406;10.774;2022-10-18T01:01:14;12.00;99.90
7654;DHT22;3869;48.406;10.774;2022-10-18T01:03:42;12.00;99.90
7654;DHT22;3869;48.406;10.774;2022-10-18T01:06:12;12.10;99.90
7654;DHT22;3869;48.406;10.774;2022-10-18T01:08:47;12.10;99.90
7654;DHT22;3869;48.406;10.774;2022-10-18T01:11:32;12.10;99.90
7654;DHT22;3869;48.406;10.774;2022-10-18T01:14:14;12.10;99.90
7654;DHT22;3869;48.406;10.774;2022-10-18T01:16:50;12.00;99.90
7654;DHT22;3869;48.406;10.774;2022-10-18T01:19:48;11.90;99.90
7654;DHT22;3869;48.406;10.774;2022-10-18T01:22:23;11.90;99.90
7654;DHT22;3869;48.406;10.774;2022-10-18T01:25:05;11.90;99.90
7654;DHT22;3869;48.406;10.774;2022-10-18T01:27:49;11.90;99.90
7654;DHT22;3869;48.406;10.774;2022-10-18T01:30:46;11.90;99.90
7654;DHT22;3869;48.406;10.774;2022-10-18T01:33:21;11.90;99.90
7654;DHT22;3869;48.406;10.774;2022-10-18T01:35:56;11.90;99.90
7654;DHT22;3869;48.406;10.774;2022-10-18T01:38:26;11.90;99.90
7654;DHT22;3869;48.406;10.774;2022-10-18T01:40:55;11.80;99.90
7654;DHT22;3869;48.406;10.774;2022-10-18T01:43:25;11.70;99.90
7654;DHT22;3869;48.406;10.774;2022-10-18T01:45:56;11.80;99.90
7654;DHT22;3869;48.406;10.774;2022-10-18T01:48:25;11.70;99.90
7654;DHT22;3869;48.406;10.774;2022-10-18T01:50:53;11.70;99.90
7654;DHT22;3869;48.406;10.774;2022-10-18T01:53:27;11.70;99.90
7654;DHT22;3869;48.406;10.774;2022-10-18T01:58:54;11.70;99.90
7654;DHT22;3869;48.406;10.774;2022-10-18T02:01:30;11.70;99.90
7654;DHT22;3869;48.406;10.774;2022-10-18T02:04:08;11.70;99.90
7654;DHT22;3869;48.406;10.774;2022-10-18T02:06:41;11.70;99.90
7654;DHT22;3869;48.406;10.774;2022-10-18T02:09:15;11.70;99.90
7654;DHT22;3869;48.406;10.774;2022-10-18T02:11:47;11.70;99.90
7654;DHT22;3869;48.406;10.774;2022-10-18T02:14:18;11.70;99.90
7654;DHT22;3869;48.406;10.774;2022-10-18T02:16:50;11.70;99.90
7654;DHT22;3869;48.406;10.774;2022-10-18T02:19:23;11.60;99.90
7654;DHT22;3869;48.406;10.774;2022-10-18T02:21:52;11.60;99.90
7654;DHT22;3869;48.406;10.774;2022-10-18T02:24:26;11.50;99.90
7654;DHT22;3869;48.406;10.774;2022-10-18T02:26:56;11.50;99.90
7654;DHT22;3869;48.406;10.774;2022-10-18T02:29:24;11.50;99.90
7654;DHT22;3869;48.406;10.774;2022-10-18T02:31:59;11.60;99.90
7654;DHT22;3869;48.406;10.774;2022-10-18T02:34:32;11.60;99.90
7654;DHT22;3869;48.406;10.774;2022-10-18T02:37:02;11.60;99.90
7654;DHT22;3869;48.406;10.774;2022-10-18T02:39:33;11.60;99.90
7654;DHT22;3869;48.406;10.774;2022-10-18T02:42:02;11.70;99.90
7654;DHT22;3869;48.406;10.774;2022-10-18T02:44:32;11.70;99.90
7654;DHT22;3869;48.406;10.774;2022-10-18T02:47:03;11.70;99.90
7654;DHT22;3869;48.406;10.774;2022-10-18T02:49:31;11.70;99.90
7654;DHT22;3869;48.406;10.774;2022-10-18T02:51:59;11.80;99.90
7654;DHT22;3869;48.406;10.774;2022-10-18T02:54:27;11.70;99.90
7654;DHT22;3869;48.406;10.774;2022-10-18T02:56:55;11.80;99.90
7654;DHT22;3869;48.406;10.774;2022-10-18T02:59:23;11.80;99.90
7654;DHT22;3869;48.406;10.774;2022-10-18T03:01:51;11.70;99.90
7654;DHT22;3869;48.406;10.774;2022-10-18T03:04:20;11.70;99.90
7654;DHT22;3869;48.406;10.774;2022-10-18T03:06:48;11.60;99.90
7654;DHT22;3869;48.406;10.774;2022-10-18T03:09:16;11.60;99.90
7654;DHT22;3869;48.406;10.774;2022-10-18T03:11:44;11.60;99.90
7654;DHT22;3869;48.406;10.774;2022-10-18T03:14:12;11.70;99.90
7654;DHT22;3869;48.406;10.774;2022-10-18T03:16:40;11.70;99.90
7654;DHT22;3869;48.406;10.774;2022-10-18T03:19:08;11.70;99.90
7654;DHT22;3869;48.406;10.774;2022-10-18T03:21:38;11.70;99.90
7654;DHT22;3869;48.406;10.774;2022-10-18T03:24:06;11.80;99.90
7654;DHT22;3869;48.406;10.774;2022-10-18T03:26:34;11.80;99.90
7654;DHT22;3869;48.406;10.774;2022-10-18T03:29:02;11.70;99.90
7654;DHT22;3869;48.406;10.774;2022-10-18T03:31:30;11.60;99.90
7654;DHT22;3869;48.406;10.774;2022-10-18T03:33:59;11.60;99.90
7654;DHT22;3869;48.406;10.774;2022-10-18T03:36:27;11.60;99.90
7654;DHT22;3869;48.406;10.774;2022-10-18T03:38:56;11.60;99.90
7654;DHT22;3869;48.406;10.774;2022-10-18T03:41:24;11.50;99.90
7654;DHT22;3869;48.406;10.774;2022-10-18T03:43:52;11.60;99.90
7654;DHT22;3869;48.406;10.774;2022-10-18T03:46:20;11.60;99.90
7654;DHT22;3869;48.406;10.774;2022-10-18T03:48:48;11.50;99.90
7654;DHT22;3869;48.406;10.774;2022-10-18T03:51:16;11.50;99.90
7654;DHT22;3869;48.406;10.774;2022-10-18T03:53:44;11.50;99.90
7654;DHT22;3869;48.406;10.774;2022-10-18T03:56:13;11.60;99.90
7654;DHT22;3869;48.406;10.774;2022-10-18T03:58:41;11.60;99.90
7654;DHT22;3869;48.406;10.774;2022-10-18T04:01:09;11.60;99.90
7654;DHT22;3869;48.406;10.774;2022-10-18T04:03:37;11.50;99.90
7654;DHT22;3869;48.406;10.774;2022-10-18T04:06:06;11.50;99.90
7654;DHT22;3869;48.406;10.774;2022-10-18T04:08:35;11.50;99.90
7654;DHT22;3869;48.406;10.774;2022-10-18T04:11:05;11.60;99.90
7654;DHT22;3869;48.406;10.774;2022-10-18T04:13:36;11.70;99.90
7654;DHT22;3869;48.406;10.774;2022-10-18T04:16:05;11.80;99.90
7654;DHT22;3869;48.406;10.774;2022-10-18T04:18:33;11.80;99.90
7654;DHT22;3869;48.406;10.774;2022-10-18T04:21:01;11.80;99.90
7654;DHT22;3869;48.406;10.774;2022-10-18T04:23:28;11.90;99.90
7654;DHT22;3869;48.406;10.774;2022-10-18T04:26:02;12.00;99.90
7654;DHT22;3869;48.406;10.774;2022-10-18T04:28:30;12.10;99.90
7654;DHT22;3869;48.406;10.774;2022-10-18T04:30:59;12.10;99.90
7654;DHT22;3869;48.406;10.774;2022-10-18T04:33:27;12.20;99.90
7654;DHT22;3869;48.406;10.774;2022-10-18T04:35:55;12.20;99.90
7654;DHT22;3869;48.406;10.774;2022-10-18T04:38:23;12.30;99.90
7654;DHT22;3869;48.406;10.774;2022-10-18T04:40:51;12.30;99.90
7654;DHT22;3869;48.406;10.774;2022-10-18T04:43:19;12.40;99.90
7654;DHT22;3869;48.406;10.774;2022-10-18T04:45:47;12.40;99.90
7654;DHT22;3869;48.406;10.774;2022-10-18T04:48:18;12.40;99.90
7654;DHT22;3869;48.406;10.774;2022-10-18T04:50:47;12.40;99.90
7654;DHT22;3869;48.406;10.774;2022-10-18T04:53:16;12.50;99.90
7654;DHT22;3869;48.406;10.774;2022-10-18T04:55:44;12.50;99.90
7654;DHT22;3869;48.406;10.774;2022-10-18T04:58:12;12.50;99.90
7654;DHT22;3869;48.406;10.774;2022-10-18T05:00:41;12.50;99.90
7654;DHT22;3869;48.406;10.774;2022-10-18T05:03:11;12.50;99.90
7654;DHT22;3869;48.406;10.774;2022-10-18T05:05:41;12.50;99.90
7654;DHT22;3869;48.406;10.774;2022-10-18T05:08:30;12.60;99.90
7654;DHT22;3869;48.406;10.774;2022-10-18T05:10:58;12.60;99.90
7654;DHT22;3869;48.406;10.774;2022-10-18T05:13:27;12.60;99.90
7654;DHT22;3869;48.406;10.774;2022-10-18T05:15:55;12.70;99.90
7654;DHT22;3869;48.406;10.774;2022-10-18T05:18:25;12.70;99.90
7654;DHT22;3869;48.406;10.774;2022-10-18T05:20:54;12.80;99.90
7654;DHT22;3869;48.406;10.774;2022-10-18T05:23:22;12.80;99.90
7654;DHT22;3869;48.406;10.774;2022-10-18T05:25:50;12.80;99.90
7654;DHT22;3869;48.406;10.774;2022-10-18T05:28:18;12.80;99.90
7654;DHT22;3869;48.406;10.774;2022-10-18T05:31:06;12.80;99.90
7654;DHT22;3869;48.406;10.774;2022-10-18T05:33:34;12.90;99.90
7654;DHT22;3869;48.406;10.774;2022-10-18T05:36:04;12.90;99.90
7654;DHT22;3869;48.406;10.774;2022-10-18T05:38:32;12.90;99.90
7654;DHT22;3869;48.406;10.774;2022-10-18T05:41:05;12.90;99.90
7654;DHT22;3869;48.406;10.774;2022-10-18T05:43:33;12.90;99.90
7654;DHT22;3869;48.406;10.774;2022-10-18T05:46:01;12.90;99.90
7654;DHT22;3869;48.406;10.774;2022-10-18T05:48:29;12.90;99.90
7654;DHT22;3869;48.406;10.774;2022-10-18T05:50:58;12.90;99.90
7654;DHT22;3869;48.406;10.774;2022-10-18T05:53:28;12.90;99.90
7654;DHT22;3869;48.406;10.774;2022-10-18T05:56:05;12.90;99.90
7654;DHT22;3869;48.406;10.774;2022-10-18T05:58:33;12.90;99.90
7654;DHT22;3869;48.406;10.774;2022-10-18T06:01:02;12.90;99.90
7654;DHT22;3869;48.406;10.774;2022-10-18T06:03:31;12.90;99.90
7654;DHT22;3869;48.406;10.774;2022-10-18T06:05:59;12.90;99.90
7654;DHT22;3869;48.406;10.774;2022-10-18T06:08:29;12.90;99.90
7654;DHT22;3869;48.406;10.774;2022-10-18T06:10:57;12.90;99.90
7654;DHT22;3869;48.406;10.774;2022-10-18T06:13:25;12.90;99.90
7654;DHT22;3869;48.406;10.774;2022-10-18T06:15:58;13.00;99.90
7654;DHT22;3869;48.406;10.774;2022-10-18T06:18:26;13.00;99.90
7654;DHT22;3869;48.406;10.774;2022-10-18T06:20:56;13.00;99.90
7654;DHT22;3869;48.406;10.774;2022-10-18T06:23:24;13.10;99.90
7654;DHT22;3869;48.406;10.774;2022-10-18T06:25:57;13.10;99.90
7654;DHT22;3869;48.406;10.774;2022-10-18T06:28:26;13.20;99.90
7654;DHT22;3869;48.406;10.774;2022-10-18T06:30:54;13.10;99.90
7654;DHT22;3869;48.406;10.774;2022-10-18T06:33:22;13.20;99.90
7654;DHT22;3869;48.406;10.774;2022-10-18T06:35:55;13.20;99.90
7654;DHT22;3869;48.406;10.774;2022-10-18T06:38:23;13.20;99.90
7654;DHT22;3869;48.406;10.774;2022-10-18T06:40:51;13.30;99.90
7654;DHT22;3869;48.406;10.774;2022-10-18T06:43:21;13.30;99.90
7654;DHT22;3869;48.406;10.774;2022-10-18T06:45:50;13.40;99.90
7654;DHT22;3869;48.406;10.774;2022-10-18T06:48:18;13.40;99.90
7654;DHT22;3869;48.406;10.774;2022-10-18T06:50:51;13.50;99.90
7654;DHT22;3869;48.406;10.774;2022-10-18T06:53:19;13.50;99.90
7654;DHT22;3869;48.406;10.774;2022-10-18T06:55:47;13.60;99.90
7654;DHT22;3869;48.406;10.774;2022-10-18T06:58:15;13.60;99.90
7654;DHT22;3869;48.406;10.774;2022-10-18T07:00:44;13.60;99.90
7654;DHT22;3869;48.406;10.774;2022-10-18T07:03:13;13.70;99.90
7654;DHT22;3869;48.406;10.774;2022-10-18T07:05:41;13.70;99.90
7654;DHT22;3869;48.406;10.774;2022-10-18T07:08:09;13.80;99.90
7654;DHT22;3869;48.406;10.774;2022-10-18T07:10:37;13.80;99.90
7654;DHT22;3869;48.406;10.774;2022-10-18T07:13:05;13.80;99.90
7654;DHT22;3869;48.406;10.774;2022-10-18T07:16:02;13.90;99.90
7654;DHT22;3869;48.406;10.774;2022-10-18T07:18:32;13.90;99.90
7654;DHT22;3869;48.406;10.774;2022-10-18T07:21:01;13.90;99.90
7654;DHT22;3869;48.406;10.774;2022-10-18T07:23:31;13.90;99.90
7654;DHT22;3869;48.406;10.774;2022-10-18T07:25:59;14.00;99.90
7654;DHT22;3869;48.406;10.774;2022-10-18T07:28:27;14.00;99.90
7654;DHT22;3869;48.406;10.774;2022-10-18T07:30:55;14.00;99.90
7654;DHT22;3869;48.406;10.774;2022-10-18T07:33:32;14.10;99.90
7654;DHT22;3869;48.406;10.774;2022-10-18T07:36:00;14.10;99.90
7654;DHT22;3869;48.406;10.774;2022-10-18T07:38:28;14.20;99.90
7654;DHT22;3869;48.406;10.774;2022-10-18T07:40:56;14.30;99.90
7654;DHT22;3869;48.406;10.774;2022-10-18T07:43:24;14.20;99.90
7654;DHT22;3869;48.406;10.774;2022-10-18T07:45:53;14.30;99.90
7654;DHT22;3869;48.406;10.774;2022-10-18T07:48:21;14.40;99.90
7654;DHT22;3869;48.406;10.774;2022-10-18T07:50:51;14.40;99.90
7654;DHT22;3869;48.406;10.774;2022-10-18T07:53:19;14.50;99.90
7654;DHT22;3869;48.406;10.774;2022-10-18T07:55:47;14.50;99.90
7654;DHT22;3869;48.406;10.774;2022-10-18T07:58:15;14.60;99.90
7654;DHT22;3869;48.406;10.774;2022-10-18T08:00:43;14.60;99.90
7654;DHT22;3869;48.406;10.774;2022-10-18T08:03:11;14.70;99.90
7654;DHT22;3869;48.406;10.774;2022-10-18T08:05:39;14.80;99.90
7654;DHT22;3869;48.406;10.774;2022-10-18T08:08:08;14.80;99.90
7654;DHT22;3869;48.406;10.774;2022-10-18T08:10:36;14.80;99.90
7654;DHT22;3869;48.406;10.774;2022-10-18T08:13:04;14.80;99.90
7654;DHT22;3869;48.406;10.774;2022-10-18T08:15:32;14.90;99.90
7654;DHT22;3869;48.406;10.774;2022-10-18T08:18:00;14.90;99.90
7654;DHT22;3869;48.406;10.774;2022-10-18T08:20:28;14.90;99.90
7654;DHT22;3869;48.406;10.774;2022-10-18T08:22:58;15.00;99.90
7654;DHT22;3869;48.406;10.774;2022-10-18T08:25:28;15.00;99.90
7654;DHT22;3869;48.406;10.774;2022-10-18T08:27:56;15.00;99.90
7654;DHT22;3869;48.406;10.774;2022-10-18T08:30:24;15.00;99.90
7654;DHT22;3869;48.406;10.774;2022-10-18T08:32:52;15.00;99.90
7654;DHT22;3869;48.406;10.774;2022-10-18T08:35:20;15.10;99.90
7654;DHT22;3869;48.406;10.774;2022-10-18T08:37:48;15.20;99.90
7654;DHT22;3869;48.406;10.774;2022-10-18T08:40:17;15.20;99.90
7654;DHT22;3869;48.406;10.774;2022-10-18T08:42:57;15.30;99.90
7654;DHT22;3869;48.406;10.774;2022-10-18T08:45:26;15.40;99.90
7654;DHT22;3869;48.406;10.774;2022-10-18T08:48:16;15.50;99.90
7654;DHT22;3869;48.406;10.774;2022-10-18T08:50:48;15.50;99.90
7654;DHT22;3869;48.406;10.774;2022-10-18T08:53:19;15.60;99.90
7654;DHT22;3869;48.406;10.774;2022-10-18T08:55:53;15.70;99.90
7654;DHT22;3869;48.406;10.774;2022-10-18T08:58:25;15.80;99.90
7654;DHT22;3869;48.406;10.774;2022-10-18T09:01:00;15.80;99.90
7654;DHT22;3869;48.406;10.774;2022-10-18T09:03:48;15.90;99.90
7654;DHT22;3869;48.406;10.774;2022-10-18T09:06:22;16.00;99.90
7654;DHT22;3869;48.406;10.774;2022-10-18T09:09:03;16.10;99.90
7654;DHT22;3869;48.406;10.774;2022-10-18T09:11:45;16.10;99.90
7654;DHT22;3869;48.406;10.774;2022-10-18T09:17:27;16.30;99.90
7654;DHT22;3869;48.406;10.774;2022-10-18T09:20:07;16.40;99.90
7654;DHT22;3869;48.406;10.774;2022-10-18T09:22:49;16.40;99.90
7654;DHT22;3869;48.406;10.774;2022-10-18T09:25:20;16.50;99.90
7654;DHT22;3869;48.406;10.774;2022-10-18T09:27:55;16.60;99.90
7654;DHT22;3869;48.406;10.774;2022-10-18T09:30:35;16.70;99.90
7654;DHT22;3869;48.406;10.774;2022-10-18T09:33:24;16.70;99.90
7654;DHT22;3869;48.406;10.774;2022-10-18T09:35:56;16.80;99.90
7654;DHT22;3869;48.406;10.774;2022-10-18T09:38:28;16.90;99.90
7654;DHT22;3869;48.406;10.774;2022-10-18T09:40:59;16.90;99.90
7654;DHT22;3869;48.406;10.774;2022-10-18T09:43:38;17.00;99.90
7654;DHT22;3869;48.406;10.774;2022-10-18T09:46:10;17.10;99.90
7654;DHT22;3869;48.406;10.774;2022-10-18T09:48:44;17.20;99.90
7654;DHT22;3869;48.406;10.774;2022-10-18T09:51:15;17.30;99.90
7654;DHT22;3869;48.406;10.774;2022-10-18T09:54:02;17.40;99.90
7654;DHT22;3869;48.406;10.774;2022-10-18T09:56:37;17.40;99.90
7654;DHT22;3869;48.406;10.774;2022-10-18T09:59:26;17.50;99.90
7654;DHT22;3869;48.406;10.774;2022-10-18T10:01:56;17.60;99.90
7654;DHT22;3869;48.406;10.774;2022-10-18T10:04:24;17.70;99.90
7654;DHT22;3869;48.406;10.774;2022-10-18T10:06:53;17.80;99.90
7654;DHT22;3869;48.406;10.774;2022-10-18T10:09:25;17.80;99.90
7654;DHT22;3869;48.406;10.774;2022-10-18T10:11:55;17.90;99.90
7654;DHT22;3869;48.406;10.774;2022-10-18T10:14:25;18.00;99.90
7654;DHT22;3869;48.406;10.774;2022-10-18T10:16:56;18.10;99.90
7654;DHT22;3869;48.406;10.774;2022-10-18T10:19:30;18.20;99.90
7654;DHT22;3869;48.406;10.774;2022-10-18T10:22:02;18.20;99.90
7654;DHT22;3869;48.406;10.774;2022-10-18T10:24:40;18.30;99.90
7654;DHT22;3869;48.406;10.774;2022-10-18T10:27:16;18.30;99.90
7654;DHT22;3869;48.406;10.774;2022-10-18T10:29:54;18.40;99.90
7654;DHT22;3869;48.406;10.774;2022-10-18T10:32:28;18.50;99.90
7654;DHT22;3869;48.406;10.774;2022-10-18T10:34:57;18.50;99.90
7654;DHT22;3869;48.406;10.774;2022-10-18T10:37:34;18.60;99.90
7654;DHT22;3869;48.406;10.774;2022-10-18T10:43:05;18.80;99.90
7654;DHT22;3869;48.406;10.774;2022-10-18T10:45:57;18.90;99.90
7654;DHT22;3869;48.406;10.774;2022-10-18T10:48:30;19.00;99.90
7654;DHT22;3869;48.406;10.774;2022-10-18T10:51:02;19.00;99.90
7654;DHT22;3869;48.406;10.774;2022-10-18T10:53:49;19.10;99.90
7654;DHT22;3869;48.406;10.774;2022-10-18T10:56:23;19.30;99.90
7654;DHT22;3869;48.406;10.774;2022-10-18T10:58:53;19.30;99.90
7654;DHT22;3869;48.406;10.774;2022-10-18T11:01:31;19.40;99.90
7654;DHT22;3869;48.406;10.774;2022-10-18T11:06:59;19.60;99.90
7654;DHT22;3869;48.406;10.774;2022-10-18T11:09:47;19.70;99.90
7654;DHT22;3869;48.406;10.774;2022-10-18T11:12:24;19.70;99.90
7654;DHT22;3869;48.406;10.774;2022-10-18T11:15:03;19.80;99.90
7654;DHT22;3869;48.406;10.774;2022-10-18T11:17:41;19.90;99.90
7654;DHT22;3869;48.406;10.774;2022-10-18T11:20:17;19.90;99.90
7654;DHT22;3869;48.406;10.774;2022-10-18T11:22:57;20.00;99.90
7654;DHT22;3869;48.406;10.774;2022-10-18T11:25:42;20.00;99.90
7654;DHT22;3869;48.406;10.774;2022-10-18T11:28:17;20.10;99.90
7654;DHT22;3869;48.406;10.774;2022-10-18T11:31:00;20.20;99.90
7654;DHT22;3869;48.406;10.774;2022-10-18T11:33:38;20.30;99.90
7654;DHT22;3869;48.406;10.774;2022-10-18T11:36:35;20.40;99.90
7654;DHT22;3869;48.406;10.774;2022-10-18T11:39:27;20.50;99.90
7654;DHT22;3869;48.406;10.774;2022-10-18T11:42:02;20.60;99.90
7654;DHT22;3869;48.406;10.774;2022-10-18T11:44:38;20.70;99.90
7654;DHT22;3869;48.406;10.774;2022-10-18T11:47:14;20.80;99.90
7654;DHT22;3869;48.406;10.774;2022-10-18T11:49:58;20.90;99.90
7654;DHT22;3869;48.406;10.774;2022-10-18T11:52:38;20.90;99.90
7654;DHT22;3869;48.406;10.774;2022-10-18T11:55:26;20.90;99.90
7654;DHT22;3869;48.406;10.774;2022-10-18T11:58:03;21.00;99.90
7654;DHT22;3869;48.406;10.774;2022-10-18T12:00:44;21.10;99.90
7654;DHT22;3869;48.406;10.774;2022-10-18T12:03:36;21.30;99.90
7654;DHT22;3869;48.406;10.774;2022-10-18T12:06:11;21.40;99.90
7654;DHT22;3869;48.406;10.774;2022-10-18T12:08:44;21.40;99.90
7654;DHT22;3869;48.406;10.774;2022-10-18T12:11:16;21.40;99.90
7654;DHT22;3869;48.406;10.774;2022-10-18T12:13:48;21.40;99.90
7654;DHT22;3869;48.406;10.774;2022-10-18T12:16:19;21.30;99.90
7654;DHT22;3869;48.406;10.774;2022-10-18T12:19:15;21.30;99.90
7654;DHT22;3869;48.406;10.774;2022-10-18T12:21:52;21.30;99.90
7654;DHT22;3869;48.406;10.774;2022-10-18T12:24:24;21.20;99.90
7654;DHT22;3869;48.406;10.774;2022-10-18T12:26:58;21.20;99.90
7654;DHT22;3869;48.406;10.774;2022-10-18T12:29:30;21.20;99.90
7654;DHT22;3869;48.406;10.774;2022-10-18T12:32:04;21.20;99.90
7654;DHT22;3869;48.406;10.774;2022-10-18T12:34:37;21.20;99.90
7654;DHT22;3869;48.406;10.774;2022-10-18T12:37:22;21.20;99.90
7654;DHT22;3869;48.406;10.774;2022-10-18T12:39:56;21.20;99.90
7654;DHT22;3869;48.406;10.774;2022-10-18T12:42:48;21.20;99.90
7654;DHT22;3869;48.406;10.774;2022-10-18T12:45:23;21.20;99.90
7654;DHT22;3869;48.406;10.774;2022-10-18T12:47:52;21.20;99.90
7654;DHT22;3869;48.406;10.774;2022-10-18T12:50:31;21.20;99.90
7654;DHT22;3869;48.406;10.774;2022-10-18T12:53:15;21.10;99.90
7654;DHT22;3869;48.406;10.774;2022-10-18T12:55:46;21.10;99.90
7654;DHT22;3869;48.406;10.774;2022-10-18T12:58:27;21.20;99.90
7654;DHT22;3869;48.406;10.774;2022-10-18T13:01:00;21.20;99.90
7654;DHT22;3869;48.406;10.774;2022-10-18T13:06:21;21.40;99.90
7654;DHT22;3869;48.406;10.774;2022-10-18T13:09:15;21.40;99.90
7654;DHT22;3869;48.406;10.774;2022-10-18T13:11:44;21.50;99.90
7654;DHT22;3869;48.406;10.774;2022-10-18T13:14:50;21.50;99.90
7654;DHT22;3869;48.406;10.774;2022-10-18T13:17:44;21.60;99.90
7654;DHT22;3869;48.406;10.774;2022-10-18T13:20:20;21.60;99.90
7654;DHT22;3869;48.406;10.774;2022-10-18T13:23:11;21.60;99.90
7654;DHT22;3869;48.406;10.774;2022-10-18T13:25:53;21.70;99.90
7654;DHT22;3869;48.406;10.774;2022-10-18T13:28:30;21.70;99.90
7654;DHT22;3869;48.406;10.774;2022-10-18T13:31:07;21.70;99.90
7654;DHT22;3869;48.406;10.774;2022-10-18T13:33:39;21.60;99.90
7654;DHT22;3869;48.406;10.774;2022-10-18T13:36:19;21.70;99.90
7654;DHT22;3869;48.406;10.774;2022-10-18T13:39:03;21.70;99.90
7654;DHT22;3869;48.406;10.774;2022-10-18T13:44:40;21.80;99.90
7654;DHT22;3869;48.406;10.774;2022-10-18T13:47:12;21.70;99.90
7654;DHT22;3869;48.406;10.774;2022-10-18T13:50:09;21.60;99.90
7654;DHT22;3869;48.406;10.774;2022-10-18T13:53:13;21.60;99.90
7654;DHT22;3869;48.406;10.774;2022-10-18T13:58:56;21.10;99.90
7654;DHT22;3869;48.406;10.774;2022-10-18T14:01:49;20.70;99.90
7654;DHT22;3869;48.406;10.774;2022-10-18T14:04:36;20.40;99.90
7654;DHT22;3869;48.406;10.774;2022-10-18T14:07:06;20.20;99.90
7654;DHT22;3869;48.406;10.774;2022-10-18T14:09:43;20.00;99.90
7654;DHT22;3869;48.406;10.774;2022-10-18T14:12:24;19.90;99.90
7654;DHT22;3869;48.406;10.774;2022-10-18T14:14:57;19.80;99.90
7654;DHT22;3869;48.406;10.774;2022-10-18T14:17:32;19.80;99.90
7654;DHT22;3869;48.406;10.774;2022-10-18T14:20:13;19.70;99.90
7654;DHT22;3869;48.406;10.774;2022-10-18T14:22:47;19.60;99.90
7654;DHT22;3869;48.406;10.774;2022-10-18T14:25:20;19.60;99.90
7654;DHT22;3869;48.406;10.774;2022-10-18T14:28:02;19.60;99.90
7654;DHT22;3869;48.406;10.774;2022-10-18T14:30:34;19.60;99.90
7654;DHT22;3869;48.406;10.774;2022-10-18T14:33:04;19.50;99.90
7654;DHT22;3869;48.406;10.774;2022-10-18T14:35:32;19.50;99.90
7654;DHT22;3869;48.406;10.774;2022-10-18T14:38:01;19.50;99.90
7654;DHT22;3869;48.406;10.774;2022-10-18T14:40:33;19.50;99.90
7654;DHT22;3869;48.406;10.774;2022-10-18T14:43:03;19.50;99.90
7654;DHT22;3869;48.406;10.774;2022-10-18T14:45:33;19.50;99.90
7654;DHT22;3869;48.406;10.774;2022-10-18T14:48:07;19.40;99.90
7654;DHT22;3869;48.406;10.774;2022-10-18T14:50:35;19.40;99.90
7654;DHT22;3869;48.406;10.774;2022-10-18T14:53:04;19.30;99.90
7654;DHT22;3869;48.406;10.774;2022-10-18T14:55:33;19.30;99.90
7654;DHT22;3869;48.406;10.774;2022-10-18T14:58:01;19.30;99.90
7654;DHT22;3869;48.406;10.774;2022-10-18T15:00:34;19.30;99.90
7654;DHT22;3869;48.406;10.774;2022-10-18T15:03:05;19.30;99.90
7654;DHT22;3869;48.406;10.774;2022-10-18T15:05:51;19.30;99.90
7654;DHT22;3869;48.406;10.774;2022-10-18T15:08:20;19.30;99.90
7654;DHT22;3869;48.406;10.774;2022-10-18T15:10:49;19.20;99.90
7654;DHT22;3869;48.406;10.774;2022-10-18T15:13:17;19.20;99.90
7654;DHT22;3869;48.406;10.774;2022-10-18T15:15:46;19.20;99.90
7654;DHT22;3869;48.406;10.774;2022-10-18T15:18:19;19.20;99.90
7654;DHT22;3869;48.406;10.774;2022-10-18T15:21:06;19.20;99.90
7654;DHT22;3869;48.406;10.774;2022-10-18T15:23:34;19.10;99.90
7654;DHT22;3869;48.406;10.774;2022-10-18T15:26:04;19.10;99.90
7654;DHT22;3869;48.406;10.774;2022-10-18T15:28:35;19.10;99.90
7654;DHT22;3869;48.406;10.774;2022-10-18T15:31:05;19.10;99.90
7654;DHT22;3869;48.406;10.774;2022-10-18T15:33:34;19.00;99.90
7654;DHT22;3869;48.406;10.774;2022-10-18T15:36:10;19.00;99.90
7654;DHT22;3869;48.406;10.774;2022-10-18T15:38:38;19.00;99.90
7654;DHT22;3869;48.406;10.774;2022-10-18T15:41:37;19.00;99.90
7654;DHT22;3869;48.406;10.774;2022-10-18T15:44:07;19.00;99.90
7654;DHT22;3869;48.406;10.774;2022-10-18T15:46:39;19.00;99.90
7654;DHT22;3869;48.406;10.774;2022-10-18T15:49:49;19.00;99.90
7654;DHT22;3869;48.406;10.774;2022-10-18T15:52:29;19.00;99.90
7654;DHT22;3869;48.406;10.774;2022-10-18T15:58:09;18.80;99.90
7654;DHT22;3869;48.406;10.774;2022-10-18T16:00:38;18.80;99.90
7654;DHT22;3869;48.406;10.774;2022-10-18T16:03:06;18.80;99.90
7654;DHT22;3869;48.406;10.774;2022-10-18T16:05:36;18.80;99.90
7654;DHT22;3869;48.406;10.774;2022-10-18T16:08:04;18.80;99.90
7654;DHT22;3869;48.406;10.774;2022-10-18T16:10:32;18.70;99.90
7654;DHT22;3869;48.406;10.774;2022-10-18T16:13:00;18.70;99.90
7654;DHT22;3869;48.406;10.774;2022-10-18T16:15:28;18.60;99.90
7654;DHT22;3869;48.406;10.774;2022-10-18T16:17:56;18.60;99.90
7654;DHT22;3869;48.406;10.774;2022-10-18T16:20:24;18.50;99.90
7654;DHT22;3869;48.406;10.774;2022-10-18T16:22:54;18.50;99.90
7654;DHT22;3869;48.406;10.774;2022-10-18T16:25:22;18.50;99.90
7654;DHT22;3869;48.406;10.774;2022-10-18T16:27:50;18.40;99.90
7654;DHT22;3869;48.406;10.774;2022-10-18T16:30:20;18.30;99.90
7654;DHT22;3869;48.406;10.774;2022-10-18T16:32:48;18.20;99.90
7654;DHT22;3869;48.406;10.774;2022-10-18T16:35:16;18.20;99.90
7654;DHT22;3869;48.406;10.774;2022-10-18T16:37:44;18.10;99.90
7654;DHT22;3869;48.406;10.774;2022-10-18T16:40:22;18.00;99.90
7654;DHT22;3869;48.406;10.774;2022-10-18T16:42:50;17.80;99.90
7654;DHT22;3869;48.406;10.774;2022-10-18T16:45:18;17.80;99.90